sensor_id;sensor_type;location;lat;lon;timestamp;temperature;humidity
44729;DHT22;30457;53.590;9.922;2022-08-19T00:03:33;25.10;50.80
44729;DHT22;30457;53.590;9.922;2022-08-19T00:07:58;25.10;50.80
44729;DHT22;30457;53.590;9.922;2022-08-19T00:12:24;25.00;50.90
44729;DHT22;30457;53.590;9.922;2022-08-19T00:16:50;25.00;51.00
44729;DHT22;30457;53.590;9.922;2022-08-19T00:21:19;25.00;51.10
44729;DHT22;30457;53.590;9.922;2022-08-19T00:25:45;25.00;51.10
44729;DHT22;30457;53.590;9.922;2022-08-19T00:30:11;25.00;51.30
44729;DHT22;30457;53.590;9.922;2022-08-19T00:34:36;25.00;51.40
44729;DHT22;30457;53.590;9.922;2022-08-19T00:39:02;25.00;51.40
44729;DHT22;30457;53.590;9.922;2022-08-19T00:43:28;25.00;51.30
44729;DHT22;30457;53.590;9.922;2022-08-19T00:47:54;24.90;51.50
44729;DHT22;30457;53.590;9.922;2022-08-19T00:52:38;24.90;51.40
44729;DHT22;30457;53.590;9.922;2022-08-19T00:57:08;24.90;51.70
44729;DHT22;30457;53.590;9.922;2022-08-19T01:01:41;24.90;51.60
44729;DHT22;30457;53.590;9.922;2022-08-19T01:06:07;24.90;51.80
44729;DHT22;30457;53.590;9.922;2022-08-19T01:10:39;24.80;51.70
44729;DHT22;30457;53.590;9.922;2022-08-19T01:15:08;24.80;51.90
44729;DHT22;30457;53.590;9.922;2022-08-19T01:19:37;24.70;51.90
44729;DHT22;30457;53.590;9.922;2022-08-19T01:24:04;24.70;51.80
44729;DHT22;30457;53.590;9.922;2022-08-19T01:28:30;24.70;52.10
44729;DHT22;30457;53.590;9.922;2022-08-19T01:32:56;24.70;52.60
44729;DHT22;30457;53.590;9.922;2022-08-19T01:37:22;24.70;52.10
44729;DHT22;30457;53.590;9.922;2022-08-19T01:41:48;24.70;52.40
44729;DHT22;30457;53.590;9.922;2022-08-19T01:46:13;24.70;52.30
44729;DHT22;30457;53.590;9.922;2022-08-19T01:50:39;24.70;52.50
44729;DHT22;30457;53.590;9.922;2022-08-19T01:55:07;24.60;52.60
44729;DHT22;30457;53.590;9.922;2022-08-19T01:59:34;24.60;52.60
44729;DHT22;30457;53.590;9.922;2022-08-19T02:04:02;24.60;52.70
44729;DHT22;30457;53.590;9.922;2022-08-19T02:08:29;24.60;52.80
44729;DHT22;30457;53.590;9.922;2022-08-19T02:12:55;24.50;53.00
44729;DHT22;30457;53.590;9.922;2022-08-19T02:17:20;24.50;53.00
44729;DHT22;30457;53.590;9.922;2022-08-19T02:21:46;24.50;53.10
44729;DHT22;30457;53.590;9.922;2022-08-19T02:26:12;24.50;53.30
44729;DHT22;30457;53.590;9.922;2022-08-19T02:30:40;24.40;53.30
44729;DHT22;30457;53.590;9.922;2022-08-19T02:35:06;24.40;53.50
44729;DHT22;30457;53.590;9.922;2022-08-19T02:39:32;24.40;53.40
44729;DHT22;30457;53.590;9.922;2022-08-19T02:43:59;24.40;53.50
44729;DHT22;30457;53.590;9.922;2022-08-19T02:48:26;24.40;53.50
44729;DHT22;30457;53.590;9.922;2022-08-19T02:52:51;24.30;53.40
44729;DHT22;30457;53.590;9.922;2022-08-19T02:57:17;24.30;53.80
44729;DHT22;30457;53.590;9.922;2022-08-19T03:01:42;24.30;53.70
44729;DHT22;30457;53.590;9.922;2022-08-19T03:06:11;24.30;53.60
44729;DHT22;30457;53.590;9.922;2022-08-19T03:10:45;24.30;53.90
44729;DHT22;30457;53.590;9.922;2022-08-19T03:15:11;24.20;54.30
44729;DHT22;30457;53.590;9.922;2022-08-19T03:19:37;24.20;54.10
44729;DHT22;30457;53.590;9.922;2022-08-19T03:24:06;24.20;54.20
44729;DHT22;30457;53.590;9.922;2022-08-19T03:28:33;24.10;54.40
44729;DHT22;30457;53.590;9.922;2022-08-19T03:32:59;24.10;54.20
44729;DHT22;30457;53.590;9.922;2022-08-19T03:37:24;24.10;54.30
44729;DHT22;30457;53.590;9.922;2022-08-19T03:41:53;24.00;54.50
44729;DHT22;30457;53.590;9.922;2022-08-19T03:46:27;24.00;54.80
44729;DHT22;30457;53.590;9.922;2022-08-19T03:50:53;24.00;55.10
44729;DHT22;30457;53.590;9.922;2022-08-19T03:55:19;24.00;55.50
44729;DHT22;30457;53.590;9.922;2022-08-19T03:59:44;24.00;54.90
44729;DHT22;30457;53.590;9.922;2022-08-19T04:04:10;24.00;54.80
44729;DHT22;30457;53.590;9.922;2022-08-19T04:08:35;23.90;54.90
44729;DHT22;30457;53.590;9.922;2022-08-19T04:13:02;23.90;55.10
44729;DHT22;30457;53.590;9.922;2022-08-19T04:17:29;23.90;55.30
44729;DHT22;30457;53.590;9.922;2022-08-19T04:21:55;23.90;55.40
44729;DHT22;30457;53.590;9.922;2022-08-19T04:26:24;23.80;55.40
44729;DHT22;30457;53.590;9.922;2022-08-19T04:30:52;23.90;55.70
44729;DHT22;30457;53.590;9.922;2022-08-19T04:35:19;23.90;55.60
44729;DHT22;30457;53.590;9.922;2022-08-19T04:39:44;23.90;55.80
44729;DHT22;30457;53.590;9.922;2022-08-19T04:44:31;23.80;55.60
44729;DHT22;30457;53.590;9.922;2022-08-19T04:48:57;23.80;55.70
44729;DHT22;30457;53.590;9.922;2022-08-19T04:57:50;23.80;55.70
44729;DHT22;30457;53.590;9.922;2022-08-19T05:02:16;23.80;55.50
44729;DHT22;30457;53.590;9.922;2022-08-19T05:06:42;23.70;55.50
44729;DHT22;30457;53.590;9.922;2022-08-19T05:11:15;23.70;55.40
44729;DHT22;30457;53.590;9.922;2022-08-19T05:15:40;23.70;55.90
44729;DHT22;30457;53.590;9.922;2022-08-19T05:20:07;23.60;55.50
44729;DHT22;30457;53.590;9.922;2022-08-19T05:24:52;23.60;55.70
44729;DHT22;30457;53.590;9.922;2022-08-19T05:29:21;23.60;55.80
44729;DHT22;30457;53.590;9.922;2022-08-19T05:33:47;23.50;56.00
44729;DHT22;30457;53.590;9.922;2022-08-19T05:38:12;23.50;55.80
44729;DHT22;30457;53.590;9.922;2022-08-19T05:42:38;23.50;55.80
44729;DHT22;30457;53.590;9.922;2022-08-19T05:47:06;23.50;55.80
44729;DHT22;30457;53.590;9.922;2022-08-19T05:51:33;23.50;56.20
44729;DHT22;30457;53.590;9.922;2022-08-19T05:56:08;23.50;56.10
44729;DHT22;30457;53.590;9.922;2022-08-19T06:00:35;23.50;56.40
44729;DHT22;30457;53.590;9.922;2022-08-19T06:05:03;23.50;56.20
44729;DHT22;30457;53.590;9.922;2022-08-19T06:09:28;23.50;56.30
44729;DHT22;30457;53.590;9.922;2022-08-19T06:13:54;23.50;56.30
44729;DHT22;30457;53.590;9.922;2022-08-19T06:18:21;23.50;56.40
44729;DHT22;30457;53.590;9.922;2022-08-19T06:22:49;23.50;56.50
44729;DHT22;30457;53.590;9.922;2022-08-19T06:27:18;23.50;56.60
44729;DHT22;30457;53.590;9.922;2022-08-19T06:31:47;23.50;56.60
44729;DHT22;30457;53.590;9.922;2022-08-19T06:36:27;23.60;56.40
44729;DHT22;30457;53.590;9.922;2022-08-19T06:41:04;23.60;56.40
44729;DHT22;30457;53.590;9.922;2022-08-19T06:45:30;23.60;56.70
44729;DHT22;30457;53.590;9.922;2022-08-19T06:49:56;23.60;56.40
44729;DHT22;30457;53.590;9.922;2022-08-19T06:54:31;23.60;56.30
44729;DHT22;30457;53.590;9.922;2022-08-19T06:58:58;23.60;56.70
44729;DHT22;30457;53.590;9.922;2022-08-19T07:03:23;23.60;56.40
44729;DHT22;30457;53.590;9.922;2022-08-19T07:07:49;23.60;56.50
44729;DHT22;30457;53.590;9.922;2022-08-19T07:12:15;23.60;56.50
44729;DHT22;30457;53.590;9.922;2022-08-19T07:16:40;23.60;56.50
44729;DHT22;30457;53.590;9.922;2022-08-19T07:21:10;23.60;56.40
44729;DHT22;30457;53.590;9.922;2022-08-19T07:25:37;23.60;56.40
44729;DHT22;30457;53.590;9.922;2022-08-19T07:30:03;23.70;56.50
44729;DHT22;30457;53.590;9.922;2022-08-19T07:34:31;23.70;56.50
44729;DHT22;30457;53.590;9.922;2022-08-19T07:39:03;23.70;56.40
44729;DHT22;30457;53.590;9.922;2022-08-19T07:43:29;23.70;56.30
44729;DHT22;30457;53.590;9.922;2022-08-19T07:47:55;23.80;56.10
44729;DHT22;30457;53.590;9.922;2022-08-19T07:52:20;23.80;56.10
44729;DHT22;30457;53.590;9.922;2022-08-19T07:56:46;23.80;56.10
44729;DHT22;30457;53.590;9.922;2022-08-19T08:01:17;23.80;56.10
44729;DHT22;30457;53.590;9.922;2022-08-19T08:05:43;23.80;56.10
44729;DHT22;30457;53.590;9.922;2022-08-19T08:10:28;23.90;56.10
44729;DHT22;30457;53.590;9.922;2022-08-19T08:15:00;23.90;56.20
44729;DHT22;30457;53.590;9.922;2022-08-19T08:19:28;23.90;56.00
44729;DHT22;30457;53.590;9.922;2022-08-19T08:23:54;23.90;55.90
44729;DHT22;30457;53.590;9.922;2022-08-19T08:28:21;24.00;56.00
44729;DHT22;30457;53.590;9.922;2022-08-19T08:32:47;24.00;55.90
44729;DHT22;30457;53.590;9.922;2022-08-19T08:37:13;24.00;55.90
44729;DHT22;30457;53.590;9.922;2022-08-19T08:41:44;24.00;55.90
44729;DHT22;30457;53.590;9.922;2022-08-19T08:50:56;24.00;56.10
44729;DHT22;30457;53.590;9.922;2022-08-19T08:55:27;24.00;56.00
44729;DHT22;30457;53.590;9.922;2022-08-19T08:59:54;24.00;56.30
44729;DHT22;30457;53.590;9.922;2022-08-19T09:04:22;24.10;56.30
44729;DHT22;30457;53.590;9.922;2022-08-19T09:17:45;24.30;55.80
44729;DHT22;30457;53.590;9.922;2022-08-19T09:22:11;24.30;55.70
44729;DHT22;30457;53.590;9.922;2022-08-19T09:26:36;24.30;55.90
44729;DHT22;30457;53.590;9.922;2022-08-19T09:31:02;24.30;55.80
44729;DHT22;30457;53.590;9.922;2022-08-19T09:35:29;24.40;56.00
44729;DHT22;30457;53.590;9.922;2022-08-19T09:39:55;24.40;55.90
44729;DHT22;30457;53.590;9.922;2022-08-19T09:44:20;24.50;55.70
44729;DHT22;30457;53.590;9.922;2022-08-19T09:48:47;24.60;55.70
44729;DHT22;30457;53.590;9.922;2022-08-19T09:53:14;24.60;55.60
44729;DHT22;30457;53.590;9.922;2022-08-19T09:57:39;24.70;55.70
44729;DHT22;30457;53.590;9.922;2022-08-19T10:02:05;24.70;55.60
44729;DHT22;30457;53.590;9.922;2022-08-19T10:06:31;24.80;55.50
44729;DHT22;30457;53.590;9.922;2022-08-19T10:10:58;24.80;55.60
44729;DHT22;30457;53.590;9.922;2022-08-19T10:15:24;24.90;55.60
44729;DHT22;30457;53.590;9.922;2022-08-19T10:19:50;24.90;55.60
44729;DHT22;30457;53.590;9.922;2022-08-19T10:24:15;24.90;55.50
44729;DHT22;30457;53.590;9.922;2022-08-19T10:28:41;24.90;55.50
44729;DHT22;30457;53.590;9.922;2022-08-19T10:33:06;25.00;55.50
44729;DHT22;30457;53.590;9.922;2022-08-19T10:37:32;25.00;55.50
44729;DHT22;30457;53.590;9.922;2022-08-19T10:41:58;25.00;55.50
44729;DHT22;30457;53.590;9.922;2022-08-19T10:46:25;25.00;55.70
44729;DHT22;30457;53.590;9.922;2022-08-19T10:50:51;25.10;55.70
44729;DHT22;30457;53.590;9.922;2022-08-19T10:55:36;25.00;55.50
44729;DHT22;30457;53.590;9.922;2022-08-19T11:00:21;25.10;55.60
44729;DHT22;30457;53.590;9.922;2022-08-19T11:04:48;25.20;55.90
44729;DHT22;30457;53.590;9.922;2022-08-19T11:09:18;25.20;55.80
44729;DHT22;30457;53.590;9.922;2022-08-19T11:13:44;25.30;55.60
44729;DHT22;30457;53.590;9.922;2022-08-19T11:18:11;25.40;55.70
44729;DHT22;30457;53.590;9.922;2022-08-19T11:22:37;25.50;56.00
44729;DHT22;30457;53.590;9.922;2022-08-19T11:27:06;25.70;55.80
44729;DHT22;30457;53.590;9.922;2022-08-19T11:31:34;25.90;55.70
44729;DHT22;30457;53.590;9.922;2022-08-19T11:36:01;26.10;55.20
44729;DHT22;30457;53.590;9.922;2022-08-19T11:40:26;26.20;54.40
44729;DHT22;30457;53.590;9.922;2022-08-19T11:44:52;26.30;54.20
44729;DHT22;30457;53.590;9.922;2022-08-19T11:49:19;26.40;54.70
44729;DHT22;30457;53.590;9.922;2022-08-19T11:53:46;26.40;54.90
44729;DHT22;30457;53.590;9.922;2022-08-19T11:58:13;26.50;54.30
44729;DHT22;30457;53.590;9.922;2022-08-19T12:02:40;26.70;54.10
44729;DHT22;30457;53.590;9.922;2022-08-19T12:07:05;26.80;53.50
44729;DHT22;30457;53.590;9.922;2022-08-19T12:11:31;26.80;53.30
44729;DHT22;30457;53.590;9.922;2022-08-19T12:15:57;26.90;53.80
44729;DHT22;30457;53.590;9.922;2022-08-19T12:20:24;27.00;53.50
44729;DHT22;30457;53.590;9.922;2022-08-19T12:24:49;27.00;53.70
44729;DHT22;30457;53.590;9.922;2022-08-19T12:29:17;27.20;53.50
44729;DHT22;30457;53.590;9.922;2022-08-19T12:33:43;27.40;53.80
44729;DHT22;30457;53.590;9.922;2022-08-19T12:38:08;27.60;53.20
44729;DHT22;30457;53.590;9.922;2022-08-19T12:42:34;27.70;52.90
44729;DHT22;30457;53.590;9.922;2022-08-19T12:47:00;27.90;52.90
44729;DHT22;30457;53.590;9.922;2022-08-19T12:51:26;28.20;52.70
44729;DHT22;30457;53.590;9.922;2022-08-19T12:55:56;28.50;52.80
44729;DHT22;30457;53.590;9.922;2022-08-19T13:00:22;28.80;52.10
44729;DHT22;30457;53.590;9.922;2022-08-19T13:04:48;29.00;51.20
44729;DHT22;30457;53.590;9.922;2022-08-19T13:09:13;29.20;50.40
44729;DHT22;30457;53.590;9.922;2022-08-19T13:13:41;29.20;50.00
44729;DHT22;30457;53.590;9.922;2022-08-19T13:18:08;29.20;49.60
44729;DHT22;30457;53.590;9.922;2022-08-19T13:22:35;29.10;49.40
44729;DHT22;30457;53.590;9.922;2022-08-19T13:27:01;29.10;50.20
44729;DHT22;30457;53.590;9.922;2022-08-19T13:31:28;29.10;49.70
44729;DHT22;30457;53.590;9.922;2022-08-19T13:36:13;29.20;49.00
44729;DHT22;30457;53.590;9.922;2022-08-19T13:40:39;29.20;49.10
44729;DHT22;30457;53.590;9.922;2022-08-19T13:45:06;29.20;48.90
44729;DHT22;30457;53.590;9.922;2022-08-19T13:49:34;29.20;48.70
44729;DHT22;30457;53.590;9.922;2022-08-19T13:54:01;29.20;48.50
44729;DHT22;30457;53.590;9.922;2022-08-19T13:58:26;29.20;48.50
44729;DHT22;30457;53.590;9.922;2022-08-19T14:02:54;29.20;48.60
44729;DHT22;30457;53.590;9.922;2022-08-19T14:07:20;29.20;48.50
44729;DHT22;30457;53.590;9.922;2022-08-19T14:11:48;29.10;48.20
44729;DHT22;30457;53.590;9.922;2022-08-19T14:16:16;29.10;48.30
44729;DHT22;30457;53.590;9.922;2022-08-19T14:20:42;29.10;48.40
44729;DHT22;30457;53.590;9.922;2022-08-19T14:25:11;29.10;48.20
44729;DHT22;30457;53.590;9.922;2022-08-19T14:29:37;29.10;48.50
44729;DHT22;30457;53.590;9.922;2022-08-19T14:34:02;29.30;49.00
44729;DHT22;30457;53.590;9.922;2022-08-19T14:38:28;29.50;49.60
44729;DHT22;30457;53.590;9.922;2022-08-19T14:42:59;29.70;48.30
44729;DHT22;30457;53.590;9.922;2022-08-19T14:47:29;29.90;48.10
44729;DHT22;30457;53.590;9.922;2022-08-19T14:51:54;30.10;47.50
44729;DHT22;30457;53.590;9.922;2022-08-19T14:56:23;30.20;47.00
44729;DHT22;30457;53.590;9.922;2022-08-19T15:00:50;30.10;46.10
44729;DHT22;30457;53.590;9.922;2022-08-19T15:05:16;30.10;46.50
44729;DHT22;30457;53.590;9.922;2022-08-19T15:09:42;30.00;46.10
44729;DHT22;30457;53.590;9.922;2022-08-19T15:14:07;29.90;46.10
44729;DHT22;30457;53.590;9.922;2022-08-19T15:18:36;29.80;46.40
44729;DHT22;30457;53.590;9.922;2022-08-19T15:23:01;29.80;46.70
44729;DHT22;30457;53.590;9.922;2022-08-19T15:27:27;29.90;46.40
44729;DHT22;30457;53.590;9.922;2022-08-19T15:31:53;30.00;46.30
44729;DHT22;30457;53.590;9.922;2022-08-19T15:36:22;30.00;46.00
44729;DHT22;30457;53.590;9.922;2022-08-19T15:40:49;30.10;46.30
44729;DHT22;30457;53.590;9.922;2022-08-19T15:45:16;30.20;45.90
44729;DHT22;30457;53.590;9.922;2022-08-19T15:49:42;30.20;45.80
44729;DHT22;30457;53.590;9.922;2022-08-19T15:54:13;30.40;45.30
44729;DHT22;30457;53.590;9.922;2022-08-19T15:58:39;30.40;44.30
44729;DHT22;30457;53.590;9.922;2022-08-19T16:03:34;30.50;44.20
44729;DHT22;30457;53.590;9.922;2022-08-19T16:08:19;30.40;44.00
44729;DHT22;30457;53.590;9.922;2022-08-19T16:12:45;30.30;44.40
44729;DHT22;30457;53.590;9.922;2022-08-19T16:17:11;30.20;43.70
44729;DHT22;30457;53.590;9.922;2022-08-19T16:21:37;30.10;43.80
44729;DHT22;30457;53.590;9.922;2022-08-19T16:26:04;30.00;44.20
44729;DHT22;30457;53.590;9.922;2022-08-19T16:30:30;30.00;44.40
44729;DHT22;30457;53.590;9.922;2022-08-19T16:34:55;30.10;44.60
44729;DHT22;30457;53.590;9.922;2022-08-19T16:39:21;30.10;43.80
44729;DHT22;30457;53.590;9.922;2022-08-19T16:43:48;30.10;43.70
44729;DHT22;30457;53.590;9.922;2022-08-19T16:48:16;30.10;44.30
44729;DHT22;30457;53.590;9.922;2022-08-19T16:52:42;30.10;43.20
44729;DHT22;30457;53.590;9.922;2022-08-19T16:57:07;29.90;43.20
44729;DHT22;30457;53.590;9.922;2022-08-19T17:01:33;29.80;43.50
44729;DHT22;30457;53.590;9.922;2022-08-19T17:05:59;29.70;43.60
44729;DHT22;30457;53.590;9.922;2022-08-19T17:10:28;29.60;43.90
44729;DHT22;30457;53.590;9.922;2022-08-19T17:14:54;29.50;43.90
44729;DHT22;30457;53.590;9.922;2022-08-19T17:19:20;29.40;44.20
44729;DHT22;30457;53.590;9.922;2022-08-19T17:23:46;29.30;44.20
44729;DHT22;30457;53.590;9.922;2022-08-19T17:28:15;29.20;44.50
44729;DHT22;30457;53.590;9.922;2022-08-19T17:32:41;29.20;44.30
44729;DHT22;30457;53.590;9.922;2022-08-19T17:37:06;29.10;44.60
44729;DHT22;30457;53.590;9.922;2022-08-19T17:41:32;29.00;44.90
44729;DHT22;30457;53.590;9.922;2022-08-19T17:45:59;28.90;44.80
44729;DHT22;30457;53.590;9.922;2022-08-19T17:50:28;28.80;44.90
44729;DHT22;30457;53.590;9.922;2022-08-19T17:54:54;28.80;45.70
44729;DHT22;30457;53.590;9.922;2022-08-19T17:59:20;28.70;44.90
44729;DHT22;30457;53.590;9.922;2022-08-19T18:03:46;28.60;44.80
44729;DHT22;30457;53.590;9.922;2022-08-19T18:08:12;28.50;44.90
44729;DHT22;30457;53.590;9.922;2022-08-19T18:12:37;28.40;45.10
44729;DHT22;30457;53.590;9.922;2022-08-19T18:17:10;28.40;45.10
44729;DHT22;30457;53.590;9.922;2022-08-19T18:21:36;28.20;45.00
44729;DHT22;30457;53.590;9.922;2022-08-19T18:26:04;28.10;45.00
44729;DHT22;30457;53.590;9.922;2022-08-19T18:30:30;28.00;45.10
44729;DHT22;30457;53.590;9.922;2022-08-19T18:35:00;27.90;45.10
44729;DHT22;30457;53.590;9.922;2022-08-19T18:39:26;27.90;45.30
44729;DHT22;30457;53.590;9.922;2022-08-19T18:44:10;27.80;45.50
44729;DHT22;30457;53.590;9.922;2022-08-19T18:48:55;27.70;45.60
44729;DHT22;30457;53.590;9.922;2022-08-19T18:53:31;27.60;45.70
44729;DHT22;30457;53.590;9.922;2022-08-19T18:57:57;27.50;45.70
44729;DHT22;30457;53.590;9.922;2022-08-19T19:02:23;27.40;46.00
44729;DHT22;30457;53.590;9.922;2022-08-19T19:06:49;27.30;46.10
44729;DHT22;30457;53.590;9.922;2022-08-19T19:11:25;27.20;46.20
44729;DHT22;30457;53.590;9.922;2022-08-19T19:15:51;27.10;46.30
44729;DHT22;30457;53.590;9.922;2022-08-19T19:20:18;27.00;46.40
44729;DHT22;30457;53.590;9.922;2022-08-19T19:24:44;26.90;46.70
44729;DHT22;30457;53.590;9.922;2022-08-19T19:29:10;26.80;46.70
44729;DHT22;30457;53.590;9.922;2022-08-19T19:33:36;26.70;46.60
44729;DHT22;30457;53.590;9.922;2022-08-19T19:38:02;26.60;46.80
44729;DHT22;30457;53.590;9.922;2022-08-19T19:42:27;26.50;46.90
44729;DHT22;30457;53.590;9.922;2022-08-19T19:46:53;26.40;46.90
44729;DHT22;30457;53.590;9.922;2022-08-19T19:51:21;26.40;47.00
44729;DHT22;30457;53.590;9.922;2022-08-19T19:55:46;26.30;47.30
44729;DHT22;30457;53.590;9.922;2022-08-19T20:00:14;26.20;47.40
44729;DHT22;30457;53.590;9.922;2022-08-19T20:04:40;26.10;47.60
44729;DHT22;30457;53.590;9.922;2022-08-19T20:09:07;26.00;47.70
44729;DHT22;30457;53.590;9.922;2022-08-19T20:13:34;25.90;47.70
44729;DHT22;30457;53.590;9.922;2022-08-19T20:18:00;25.70;47.80
44729;DHT22;30457;53.590;9.922;2022-08-19T20:22:28;25.70;47.80
44729;DHT22;30457;53.590;9.922;2022-08-19T20:26:54;25.50;47.90
44729;DHT22;30457;53.590;9.922;2022-08-19T20:31:20;25.50;48.10
44729;DHT22;30457;53.590;9.922;2022-08-19T20:35:46;25.40;48.20
44729;DHT22;30457;53.590;9.922;2022-08-19T20:40:12;25.30;48.30
44729;DHT22;30457;53.590;9.922;2022-08-19T20:44:37;25.20;48.40
44729;DHT22;30457;53.590;9.922;2022-08-19T20:49:03;25.20;48.70
44729;DHT22;30457;53.590;9.922;2022-08-19T20:53:29;25.10;48.70
44729;DHT22;30457;53.590;9.922;2022-08-19T20:57:55;25.00;49.00
44729;DHT22;30457;53.590;9.922;2022-08-19T21:02:21;24.90;49.00
44729;DHT22;30457;53.590;9.922;2022-08-19T21:06:48;24.80;49.80
44729;DHT22;30457;53.590;9.922;2022-08-19T21:11:13;24.80;49.40
44729;DHT22;30457;53.590;9.922;2022-08-19T21:15:39;24.70;49.30
44729;DHT22;30457;53.590;9.922;2022-08-19T21:20:08;24.60;49.40
44729;DHT22;30457;53.590;9.922;2022-08-19T21:24:35;24.60;49.50
44729;DHT22;30457;53.590;9.922;2022-08-19T21:29:00;24.50;49.50
44729;DHT22;30457;53.590;9.922;2022-08-19T21:33:27;24.50;49.80
44729;DHT22;30457;53.590;9.922;2022-08-19T21:37:54;24.40;49.80
44729;DHT22;30457;53.590;9.922;2022-08-19T21:42:22;24.30;50.00
44729;DHT22;30457;53.590;9.922;2022-08-19T21:46:48;24.30;50.10
44729;DHT22;30457;53.590;9.922;2022-08-19T21:51:14;24.30;50.20
44729;DHT22;30457;53.590;9.922;2022-08-19T21:55:39;24.20;50.30
44729;DHT22;30457;53.590;9.922;2022-08-19T22:00:11;24.20;50.30
44729;DHT22;30457;53.590;9.922;2022-08-19T22:04:38;24.10;50.40
44729;DHT22;30457;53.590;9.922;2022-08-19T22:09:05;24.10;50.50
44729;DHT22;30457;53.590;9.922;2022-08-19T22:13:34;24.00;50.60
44729;DHT22;30457;53.590;9.922;2022-08-19T22:18:02;24.00;50.80
44729;DHT22;30457;53.590;9.922;2022-08-19T22:22:30;24.00;50.80
44729;DHT22;30457;53.590;9.922;2022-08-19T22:26:56;23.90;50.90
44729;DHT22;30457;53.590;9.922;2022-08-19T22:31:21;23.80;51.10
44729;DHT22;30457;53.590;9.922;2022-08-19T22:35:47;23.80;51.10
44729;DHT22;30457;53.590;9.922;2022-08-19T22:40:14;23.80;51.20
44729;DHT22;30457;53.590;9.922;2022-08-19T22:44:39;23.80;51.30
44729;DHT22;30457;53.590;9.922;2022-08-19T22:49:05;23.70;51.50
44729;DHT22;30457;53.590;9.922;2022-08-19T22:53:33;23.70;51.70
44729;DHT22;30457;53.590;9.922;2022-08-19T22:57:58;23.70;52.00
44729;DHT22;30457;53.590;9.922;2022-08-19T23:02:28;23.70;52.10
44729;DHT22;30457;53.590;9.922;2022-08-19T23:06:53;23.70;52.30
44729;DHT22;30457;53.590;9.922;2022-08-19T23:11:19;23.70;52.70
44729;DHT22;30457;53.590;9.922;2022-08-19T23:15:45;23.70;52.50
44729;DHT22;30457;53.590;9.922;2022-08-19T23:20:13;23.70;52.80
44729;DHT22;30457;53.590;9.922;2022-08-19T23:24:39;23.80;52.80
44729;DHT22;30457;53.590;9.922;2022-08-19T23:29:05;23.80;52.70
44729;DHT22;30457;53.590;9.922;2022-08-19T23:33:49;23.80;52.60
44729;DHT22;30457;53.590;9.922;2022-08-19T23:38:14;23.80;52.70
44729;DHT22;30457;53.590;9.922;2022-08-19T23:42:40;23.90;52.40
44729;DHT22;30457;53.590;9.922;2022-08-19T23:47:06;23.90;52.10
44729;DHT22;30457;53.590;9.922;2022-08-19T23:51:32;23.90;51.90
44729;DHT22;30457;53.590;9.922;2022-08-19T23:55:57;23.90;51.90
